Time;durP1;ratioP1;P1;durP2;ratioP2;P2;SDS_P1;SDS_P2;PMS_P1;PMS_P2;Temp;Humidity;BMP_temperature;BMP_pressure;BME280_temperature;BME280_humidity;BME280_pressure;Samples;Min_cycle;Max_cycle;Signal;HPM_P1;HPM_P2
2022/07/05 00:00:28;;;;;;;1.57;1.47;;;26.60;43.60;;;;;;5070569;28;20545;-47
2022/07/05 00:03:08;;;;;;;1.83;1.37;;;26.60;43.60;;;;;;5083137;28;21089;-50
2022/07/05 00:05:50;;;;;;;1.37;1.27;;;26.60;43.50;;;;;;5056305;27;20601;-50
2022/07/05 00:08:30;;;;;;;1.90;1.60;;;26.60;43.60;;;;;;5098020;27;20587;-48
2022/07/05 00:11:10;;;;;;;1.77;1.43;;;26.60;43.70;;;;;;5064432;28;20600;-47
2022/07/05 00:13:50;;;;;;;2.37;1.60;;;26.60;43.70;;;;;;5113903;27;20576;-49
2022/07/05 00:16:30;;;;;;;1.50;1.40;;;26.60;43.60;;;;;;5045872;27;20539;-47
2022/07/05 00:19:11;;;;;;;1.40;1.30;;;26.60;43.70;;;;;;5081069;27;20585;-50
2022/07/05 00:21:51;;;;;;;1.90;1.70;;;26.60;43.70;;;;;;5081553;27;21135;-51
2022/07/05 00:24:31;;;;;;;1.37;1.27;;;26.60;43.80;;;;;;5120114;27;21074;-50
2022/07/05 00:27:12;;;;;;;1.93;1.77;;;26.60;43.80;;;;;;5056169;27;20600;-49
2022/07/05 00:29:52;;;;;;;1.40;1.30;;;26.60;43.80;;;;;;5071247;28;20574;-49
2022/07/05 00:32:32;;;;;;;1.80;1.53;;;26.60;44.00;;;;;;5098557;27;20531;-48
2022/07/05 00:35:13;;;;;;;1.60;1.50;;;26.60;44.00;;;;;;5113127;27;20947;-50
2022/07/05 00:37:53;;;;;;;1.37;1.27;;;26.60;43.80;;;;;;5108261;27;20564;-52
2022/07/05 00:40:33;;;;;;;1.57;1.43;;;26.60;43.90;;;;;;5122900;27;20584;-51
2022/07/05 00:43:13;;;;;;;1.80;1.60;;;26.50;43.90;;;;;;5108018;27;20576;-48
2022/07/05 00:45:52;;;;;;;2.03;1.60;;;26.60;43.90;;;;;;5063705;28;20592;-49
2022/07/05 00:48:32;;;;;;;2.40;1.47;;;26.50;43.80;;;;;;5073695;28;20536;-49
2022/07/05 00:51:12;;;;;;;1.97;1.47;;;26.50;43.90;;;;;;5063796;28;20542;-48
2022/07/05 00:53:54;;;;;;;2.00;1.43;;;26.50;43.90;;;;;;5078305;27;20547;-51
2022/07/05 00:56:33;;;;;;;1.93;1.40;;;26.50;43.90;;;;;;5086268;27;20598;-49
2022/07/05 00:59:13;;;;;;;3.40;1.60;;;26.50;43.90;;;;;;5082776;27;20929;-49
2022/07/05 01:01:53;;;;;;;1.30;1.20;;;26.50;43.90;;;;;;5042220;27;20605;-49
2022/07/05 01:04:33;;;;;;;1.87;1.30;;;26.50;43.90;;;;;;5114674;27;20512;-48
2022/07/05 01:07:14;;;;;;;1.93;1.10;;;26.50;43.90;;;;;;5067896;27;20599;-49
2022/07/05 01:09:57;;;;;;;1.50;1.40;;;26.50;44.00;;;;;;5063130;27;20607;-49
2022/07/05 01:12:38;;;;;;;2.73;1.50;;;26.50;43.90;;;;;;5079124;28;20583;-49
2022/07/05 01:15:22;;;;;;;1.77;1.67;;;26.50;44.00;;;;;;5125399;27;20530;-49
2022/07/05 01:18:05;;;;;;;2.13;1.93;;;26.50;45.20;;;;;;5107684;27;20581;-47
2022/07/05 01:20:49;;;;;;;3.93;1.73;;;26.50;44.00;;;;;;5074789;28;20599;-49
2022/07/05 01:23:30;;;;;;;1.50;1.40;;;26.50;44.00;;;;;;5080162;28;20535;-49
2022/07/05 01:26:10;;;;;;;1.63;1.50;;;26.50;44.00;;;;;;5055005;28;20553;-48
2022/07/05 01:28:50;;;;;;;2.00;1.80;;;26.50;44.00;;;;;;5070250;27;20935;-50
2022/07/05 01:31:30;;;;;;;2.93;1.37;;;26.50;44.00;;;;;;5116065;27;20545;-51
2022/07/05 01:34:12;;;;;;;1.73;1.63;;;26.50;44.00;;;;;;5123002;27;20584;-49
2022/07/05 01:36:51;;;;;;;2.30;2.07;;;26.50;44.00;;;;;;5036842;27;20594;-49
2022/07/05 01:39:33;;;;;;;1.70;1.60;;;26.50;44.00;;;;;;5073272;27;20538;-48
2022/07/05 01:42:14;;;;;;;2.93;1.73;;;26.50;45.40;;;;;;5071406;27;20602;-51
2022/07/05 01:44:54;;;;;;;2.17;1.97;;;26.50;44.10;;;;;;5069492;28;20587;-48
2022/07/05 01:47:37;;;;;;;1.50;1.40;;;26.50;44.20;;;;;;5070632;28;21002;-49
2022/07/05 01:50:22;;;;;;;1.60;1.50;;;26.40;44.10;;;;;;5070367;28;20638;-51
2022/07/05 01:53:04;;;;;;;1.80;1.70;;;26.40;44.10;;;;;;5075388;28;21012;-49
2022/07/05 01:55:45;;;;;;;1.47;1.37;;;26.40;44.00;;;;;;5120114;27;20595;-52
2022/07/05 01:58:27;;;;;;;2.53;2.00;;;26.40;44.20;;;;;;5082423;28;20642;-49
2022/07/05 02:01:09;;;;;;;1.63;1.53;;;26.40;44.10;;;;;;5075685;28;20603;-49
2022/07/05 02:03:51;;;;;;;2.33;1.80;;;26.40;44.20;;;;;;5069354;27;20969;-49
2022/07/05 02:06:38;;;;;;;2.10;1.80;;;26.40;44.10;;;;;;5042613;28;20605;-47
2022/07/05 02:09:21;;;;;;;2.27;1.63;;;26.40;44.10;;;;;;5072824;27;21133;-50
2022/07/05 02:12:03;;;;;;;1.80;1.70;;;26.40;44.20;;;;;;5066669;27;20624;-49
2022/07/05 02:14:45;;;;;;;1.70;1.60;;;26.40;44.20;;;;;;5074924;27;20939;-48
2022/07/05 02:17:32;;;;;;;1.77;1.47;;;26.40;44.30;;;;;;5072761;27;20591;-46
2022/07/05 02:20:13;;;;;;;2.20;1.83;;;26.40;44.30;;;;;;5072366;27;20583;-47
2022/07/05 02:22:54;;;;;;;1.70;1.53;;;26.40;44.40;;;;;;5107391;27;20580;-48
2022/07/05 02:25:36;;;;;;;4.17;1.40;;;26.40;44.40;;;;;;5060500;27;20544;-53
2022/07/05 02:28:22;;;;;;;2.20;1.97;;;26.40;44.40;;;;;;5072745;28;21117;-48
2022/07/05 02:31:04;;;;;;;1.77;1.50;;;26.40;44.40;;;;;;5068858;28;20908;-50
2022/07/05 02:33:45;;;;;;;1.90;1.63;;;26.40;44.30;;;;;;5089933;27;20570;-50
2022/07/05 02:36:25;;;;;;;2.47;1.90;;;26.30;44.30;;;;;;5048973;28;21135;-48
2022/07/05 02:39:06;;;;;;;2.13;1.80;;;26.30;44.30;;;;;;5079331;27;20951;-46
2022/07/05 02:41:47;;;;;;;2.40;1.60;;;26.30;44.30;;;;;;5131921;27;20544;-50
2022/07/05 02:44:29;;;;;;;1.07;1.07;;;26.30;44.30;;;;;;5075282;28;20583;-49
2022/07/05 02:47:10;;;;;;;2.10;1.90;;;26.30;44.30;;;;;;5059574;27;20603;-50
2022/07/05 02:49:53;;;;;;;2.63;1.70;;;26.30;44.30;;;;;;5071693;28;21110;-49
2022/07/05 02:52:33;;;;;;;1.80;1.50;;;26.30;45.60;;;;;;5112301;27;20506;-49
2022/07/05 02:55:14;;;;;;;1.97;1.60;;;26.30;44.30;;;;;;5069580;28;20595;-49
2022/07/05 02:57:57;;;;;;;1.67;1.57;;;26.30;44.40;;;;;;5116266;27;20592;-49
2022/07/05 03:00:39;;;;;;;1.47;1.37;;;26.30;44.50;;;;;;5045993;28;20599;-48
2022/07/05 03:03:20;;;;;;;1.50;1.40;;;26.30;44.50;;;;;;5121998;27;20525;-49
2022/07/05 03:06:01;;;;;;;1.57;1.47;;;26.30;44.30;;;;;;5066573;27;20585;-49
2022/07/05 03:08:43;;;;;;;1.77;1.63;;;26.20;44.30;;;;;;5069439;28;21088;-48
2022/07/05 03:11:26;;;;;;;2.00;1.80;;;26.20;44.40;;;;;;5067289;28;20583;-49
2022/07/05 03:14:07;;;;;;;1.83;1.73;;;26.20;44.50;;;;;;5100072;27;20922;-51
2022/07/05 03:16:49;;;;;;;2.23;1.57;;;26.20;44.50;;;;;;5038104;27;20591;-48
2022/07/05 03:19:30;;;;;;;1.70;1.60;;;26.20;44.50;;;;;;5119037;27;20568;-49
2022/07/05 03:22:10;;;;;;;1.60;1.50;;;26.20;44.40;;;;;;5068355;27;20962;-49
2022/07/05 03:24:53;;;;;;;2.43;1.80;;;26.20;44.50;;;;;;5067909;27;21048;-49
2022/07/05 03:27:46;;;;;;;1.80;1.70;;;26.20;44.50;;;;;;5083961;28;20556;-49
2022/07/05 03:30:28;;;;;;;1.67;1.57;;;26.20;44.40;;;;;;5087644;27;20600;-52
2022/07/05 03:33:11;;;;;;;1.33;1.23;;;26.20;44.50;;;;;;5065752;27;20951;-49
2022/07/05 03:35:55;;;;;;;1.70;1.60;;;26.20;44.50;;;;;;5044567;28;20607;-49
2022/07/05 03:38:37;;;;;;;1.77;1.67;;;26.20;44.50;;;;;;5074205;28;20532;-48
2022/07/05 03:41:16;;;;;;;1.63;1.53;;;26.20;44.50;;;;;;5062966;27;20588;-49
2022/07/05 03:43:56;;;;;;;1.77;1.67;;;26.20;44.60;;;;;;5067812;28;21055;-49
2022/07/05 03:46:38;;;;;;;2.07;1.97;;;26.10;44.50;;;;;;5049928;27;20734;-48
2022/07/05 03:49:17;;;;;;;1.67;1.57;;;26.10;44.60;;;;;;5076098;28;20582;-47
2022/07/05 03:51:59;;;;;;;2.03;1.87;;;26.10;44.60;;;;;;5051289;28;20531;-49
2022/07/05 03:54:39;;;;;;;1.60;1.50;;;26.10;44.50;;;;;;5073860;27;20601;-49
2022/07/05 03:57:20;;;;;;;1.90;1.80;;;26.10;44.50;;;;;;5108360;27;20874;-49
2022/07/05 04:00:00;;;;;;;1.50;1.40;;;26.10;44.50;;;;;;5108836;27;20604;-49
2022/07/05 04:02:42;;;;;;;1.90;1.80;;;26.10;44.50;;;;;;5068695;27;20595;-48
2022/07/05 04:05:26;;;;;;;1.77;1.67;;;26.10;44.50;;;;;;5079793;27;21376;-48
2022/07/05 04:08:07;;;;;;;1.70;1.60;;;26.10;44.60;;;;;;5074428;28;20537;-47
2022/07/05 04:10:53;;;;;;;1.40;1.30;;;26.00;44.60;;;;;;5077339;27;20591;-49
2022/07/05 04:13:37;;;;;;;1.67;1.37;;;26.10;44.60;;;;;;5052887;27;20938;-49
2022/07/05 04:16:18;;;;;;;1.83;1.73;;;26.10;44.70;;;;;;5051605;28;20594;-47
2022/07/05 04:18:59;;;;;;;1.70;1.60;;;26.00;44.70;;;;;;5087373;27;20550;-48
2022/07/05 04:21:42;;;;;;;1.80;1.70;;;26.00;44.80;;;;;;5114459;27;20530;-51
2022/07/05 04:24:24;;;;;;;1.90;1.63;;;26.00;44.80;;;;;;5072265;28;20579;-48
2022/07/05 04:27:04;;;;;;;1.80;1.70;;;26.00;44.80;;;;;;5041965;27;20622;-49
2022/07/05 04:29:45;;;;;;;1.80;1.70;;;26.00;44.80;;;;;;5069665;28;20509;-49
2022/07/05 04:32:27;;;;;;;2.40;1.80;;;26.00;44.80;;;;;;5062493;28;20612;-49
2022/07/05 04:35:08;;;;;;;1.87;1.77;;;26.00;44.80;;;;;;5074018;28;20587;-49
2022/07/05 04:37:50;;;;;;;1.80;1.70;;;26.00;44.90;;;;;;5068368;28;21090;-49
2022/07/05 04:40:31;;;;;;;2.27;1.80;;;26.00;44.80;;;;;;5117814;27;20561;-50
2022/07/05 04:43:12;;;;;;;1.87;1.77;;;26.00;44.90;;;;;;5095022;27;20573;-47
2022/07/05 04:45:52;;;;;;;1.57;1.47;;;26.00;44.80;;;;;;5079151;27;21145;-49
2022/07/05 04:48:36;;;;;;;1.50;1.40;;;26.00;44.80;;;;;;5079275;28;20570;-49
2022/07/05 04:51:18;;;;;;;1.90;1.80;;;26.00;45.00;;;;;;5068302;27;20595;-49
2022/07/05 04:53:58;;;;;;;2.20;2.00;;;26.00;44.90;;;;;;5060972;28;20584;-48
2022/07/05 04:56:37;;;;;;;2.20;1.67;;;26.00;44.80;;;;;;5043482;27;20540;-50
2022/07/05 04:59:17;;;;;;;1.60;1.30;;;26.00;44.80;;;;;;5075231;27;20586;-49
2022/07/05 05:02:04;;;;;;;2.13;1.97;;;26.00;45.00;;;;;;5049209;28;20613;-48
2022/07/05 05:04:45;;;;;;;2.57;2.10;;;26.00;45.00;;;;;;5111225;27;20525;-49
2022/07/05 05:07:25;;;;;;;1.80;1.70;;;25.90;44.90;;;;;;5060516;27;20530;-47
2022/07/05 05:10:06;;;;;;;2.10;1.67;;;25.90;44.90;;;;;;5067011;28;21133;-48
2022/07/05 05:12:46;;;;;;;2.57;1.90;;;25.90;45.00;;;;;;5071270;27;20929;-49
2022/07/05 05:15:26;;;;;;;2.00;1.90;;;25.90;44.80;;;;;;5065736;28;20536;-49
2022/07/05 05:18:07;;;;;;;1.70;1.60;;;25.90;44.80;;;;;;5102227;27;21044;-53
2022/07/05 05:20:47;;;;;;;2.30;2.17;;;25.90;44.80;;;;;;5077829;27;20583;-47
2022/07/05 05:23:27;;;;;;;2.60;2.40;;;25.90;44.80;;;;;;5072227;27;20944;-49
2022/07/05 05:26:07;;;;;;;1.70;1.60;;;25.90;44.80;;;;;;5067170;28;20589;-48
2022/07/05 05:28:46;;;;;;;2.70;2.50;;;25.90;46.00;;;;;;5059085;28;20565;-47
2022/07/05 05:31:28;;;;;;;2.10;1.90;;;25.90;44.80;;;;;;5044593;28;20594;-49
2022/07/05 05:34:20;;;;;;;2.00;1.90;;;25.90;44.60;;;;;;5080459;27;20541;-48
2022/07/05 05:37:00;;;;;;;2.70;2.50;;;25.90;44.60;;;;;;5045408;27;20538;-46
2022/07/05 05:39:40;;;;;;;2.37;2.10;;;25.90;44.60;;;;;;5076961;28;20595;-46
2022/07/05 05:42:22;;;;;;;2.37;2.17;;;25.90;44.50;;;;;;5069222;27;20537;-47
2022/07/05 05:45:03;;;;;;;3.17;2.20;;;25.90;44.50;;;;;;5103568;27;20547;-45
2022/07/05 05:47:49;;;;;;;2.40;2.13;;;25.90;44.50;;;;;;5084140;28;20573;-47
2022/07/05 05:50:32;;;;;;;2.00;1.80;;;25.90;44.60;;;;;;5096136;27;20534;-47
2022/07/05 05:53:10;;;;;;;1.77;1.63;;;25.90;44.70;;;;;;5137016;27;1235174;-47
2022/07/05 05:55:52;;;;;;;2.63;2.40;;;25.90;44.70;;;;;;5101988;27;20593;-47
2022/07/05 05:58:31;;;;;;;2.17;1.97;;;25.90;44.50;;;;;;5128722;27;20564;-47
2022/07/05 06:01:11;;;;;;;1.87;1.67;;;25.90;44.40;;;;;;5070682;28;20585;-48
2022/07/05 06:03:51;;;;;;;2.17;2.07;;;25.90;44.40;;;;;;5128271;27;20586;-48
2022/07/05 06:06:31;;;;;;;3.83;2.07;;;25.90;44.40;;;;;;5058137;27;20661;-48
2022/07/05 06:09:11;;;;;;;3.30;1.93;;;25.90;44.50;;;;;;5079186;28;20589;-47
2022/07/05 06:11:50;;;;;;;2.80;2.30;;;25.90;44.40;;;;;;5055574;28;20618;-48
2022/07/05 06:14:30;;;;;;;2.13;2.03;;;25.90;44.40;;;;;;5077101;27;20582;-48
2022/07/05 06:17:10;;;;;;;2.30;2.10;;;25.90;44.30;;;;;;5045646;27;20608;-47
2022/07/05 06:19:50;;;;;;;3.87;1.87;;;25.80;44.20;;;;;;5120321;27;20522;-46
2022/07/05 06:22:30;;;;;;;1.80;1.70;;;25.80;44.30;;;;;;5115145;27;20572;-48
2022/07/05 06:25:10;;;;;;;3.40;2.00;;;25.90;44.40;;;;;;5093310;27;20904;-48
2022/07/05 06:28:07;;;;;;;1.90;1.80;;;25.80;44.30;;;;;;5102905;27;20589;-46
2022/07/05 06:30:48;;;;;;;1.80;1.70;;;25.80;44.40;;;;;;5051848;27;20544;-47
2022/07/05 06:33:30;;;;;;;2.17;1.80;;;25.90;44.50;;;;;;5071325;28;20945;-47
2022/07/05 06:36:10;;;;;;;2.03;1.83;;;25.80;44.30;;;;;;5091375;27;20541;-46
2022/07/05 06:38:51;;;;;;;2.20;2.00;;;25.80;44.30;;;;;;5078218;28;20594;-47
2022/07/05 06:41:32;;;;;;;1.53;1.20;;;25.80;45.40;;;;;;5155184;27;20535;-48
2022/07/05 06:44:14;;;;;;;3.03;2.53;;;25.80;44.60;;;;;;5099382;27;20585;-47
2022/07/05 06:47:16;;;;;;;2.50;2.30;;;25.90;45.40;;;;;;5043200;27;20610;-48
2022/07/05 06:49:59;;;;;;;2.90;2.70;;;25.80;44.10;;;;;;5059367;28;20992;-47
2022/07/05 06:52:40;;;;;;;6.40;1.93;;;25.80;44.10;;;;;;5100714;27;20564;-47
2022/07/05 06:55:20;;;;;;;5.03;2.73;;;25.80;44.30;;;;;;5067206;27;20639;-47
2022/07/05 06:58:03;;;;;;;2.77;2.30;;;25.70;44.90;;;;;;5078589;28;20525;-47
2022/07/05 07:00:53;;;;;;;2.63;2.43;;;25.70;43.70;;;;;;5118681;27;20592;-47
2022/07/05 07:03:53;;;;;;;3.73;2.43;;;25.70;43.80;;;;;;5088663;27;21127;-47
2022/07/05 07:06:54;;;;;;;3.67;2.27;;;25.70;44.90;;;;;;5087730;27;20548;-48
2022/07/05 07:09:34;;;;;;;4.83;2.33;;;25.70;43.90;;;;;;5081731;27;20582;-48
2022/07/05 07:12:13;;;;;;;3.20;1.90;;;25.70;44.00;;;;;;5064769;27;21779;-47
2022/07/05 07:14:53;;;;;;;4.87;2.73;;;25.70;44.20;;;;;;5106210;27;20572;-47
2022/07/05 07:17:33;;;;;;;3.80;2.10;;;25.80;43.30;;;;;;5125615;27;20940;-48
2022/07/05 07:20:13;;;;;;;3.70;2.60;;;25.80;42.90;;;;;;5119177;27;20521;-47
2022/07/05 07:22:54;;;;;;;2.47;2.27;;;25.80;43.20;;;;;;5104843;27;20530;-47
2022/07/05 07:25:34;;;;;;;2.40;2.13;;;25.80;43.10;;;;;;5102028;27;20547;-48
2022/07/05 07:28:15;;;;;;;4.73;2.20;;;25.80;43.30;;;;;;5077687;27;20583;-45
2022/07/05 07:30:55;;;;;;;2.10;1.90;;;25.70;43.60;;;;;;5036470;28;20601;-47
2022/07/05 07:33:36;;;;;;;5.17;2.03;;;25.70;43.70;;;;;;5125367;27;21091;-48
2022/07/05 07:36:24;;;;;;;2.13;2.00;;;25.70;43.90;;;;;;5093783;27;20949;-47
2022/07/05 07:39:05;;;;;;;1.90;1.80;;;25.70;44.00;;;;;;5083761;27;20609;-47
2022/07/05 07:41:46;;;;;;;2.83;1.50;;;25.70;44.20;;;;;;5058913;27;21130;-47
2022/07/05 07:44:27;;;;;;;2.60;2.40;;;25.70;44.20;;;;;;5098957;27;20591;-47
2022/07/05 07:47:12;;;;;;;3.93;1.97;;;25.70;44.20;;;;;;5064037;27;20553;-47
2022/07/05 07:49:53;;;;;;;2.17;1.87;;;25.70;44.20;;;;;;5127551;27;21046;-47
2022/07/05 07:52:34;;;;;;;2.07;1.70;;;25.70;44.30;;;;;;5123569;27;21047;-47
2022/07/05 07:55:15;;;;;;;2.70;1.77;;;25.70;44.40;;;;;;5082657;28;20532;-46
2022/07/05 07:57:56;;;;;;;1.80;1.70;;;25.70;44.30;;;;;;5105766;27;21045;-47
2022/07/05 08:00:35;;;;;;;4.30;1.77;;;25.70;44.30;;;;;;5096646;27;20593;-47
2022/07/05 08:03:15;;;;;;;5.07;3.58;;;25.70;44.50;;;;;;5126459;27;20875;-47
2022/07/05 08:05:58;;;;;;;5.83;2.40;;;25.70;44.00;;;;;;5052518;27;20616;-46
2022/07/05 08:08:39;;;;;;;3.30;2.13;;;25.70;44.30;;;;;;5120462;27;20576;-48
2022/07/05 08:11:19;;;;;;;2.10;1.90;;;25.70;44.40;;;;;;5100010;27;20549;-47
2022/07/05 08:13:59;;;;;;;3.97;2.80;;;25.60;44.40;;;;;;5106814;27;20535;-47
2022/07/05 08:16:41;;;;;;;6.95;2.70;;;25.70;43.90;;;;;;5084822;27;20503;-47
2022/07/05 08:22:29;;;;;;;3.50;1.67;;;25.70;42.80;;;;;;5064932;27;20612;-47
2022/07/05 08:25:09;;;;;;;2.23;1.70;;;25.70;44.10;;;;;;5092947;27;20613;-48
2022/07/05 08:27:49;;;;;;;1.50;1.40;;;25.70;43.10;;;;;;5083971;28;20664;-48
2022/07/05 08:30:29;;;;;;;3.67;2.00;;;25.70;43.40;;;;;;5075873;28;20524;-47
2022/07/05 08:33:10;;;;;;;2.50;2.07;;;25.70;43.10;;;;;;5128149;27;20567;-47
2022/07/05 08:35:50;;;;;;;2.80;1.83;;;25.70;42.90;;;;;;5078829;27;20550;-47
2022/07/05 08:38:28;;;;;;;5.15;1.83;;;25.70;43.00;;;;;;5118163;27;1214207;-47
2022/07/05 08:41:12;;;;;;;1.60;1.43;;;25.70;44.60;;;;;;5073853;28;20594;-46
2022/07/05 08:43:53;;;;;;;3.10;1.60;;;25.70;43.60;;;;;;5080739;27;20583;-47
2022/07/05 08:46:38;;;;;;;4.47;1.53;;;25.70;43.70;;;;;;5088718;27;20549;-47
2022/07/05 08:49:22;;;;;;;2.70;1.53;;;25.70;43.80;;;;;;5078193;28;20609;-47
2022/07/05 08:52:05;;;;;;;1.70;1.60;;;25.70;44.00;;;;;;5046212;27;20598;-47
2022/07/05 08:54:47;;;;;;;1.97;1.70;;;25.70;44.00;;;;;;5097416;27;20599;-45
2022/07/05 08:57:27;;;;;;;1.40;1.30;;;25.70;44.10;;;;;;5053765;27;20557;-48
2022/07/05 09:00:09;;;;;;;1.90;1.80;;;25.70;44.20;;;;;;5087192;28;20532;-46
2022/07/05 09:02:49;;;;;;;1.90;1.53;;;25.70;44.30;;;;;;5103662;27;20531;-47
2022/07/05 09:05:35;;;;;;;2.00;1.87;;;25.70;44.20;;;;;;5063054;28;20587;-46
2022/07/05 09:08:17;;;;;;;1.60;1.40;;;25.60;44.00;;;;;;5099500;27;20580;-48
2022/07/05 09:10:58;;;;;;;2.60;1.40;;;25.60;44.10;;;;;;5134971;27;20537;-47
2022/07/05 09:13:39;;;;;;;1.83;1.67;;;25.60;44.00;;;;;;5084974;28;20539;-47
2022/07/05 09:16:19;;;;;;;1.83;1.37;;;25.70;44.20;;;;;;5114118;27;20591;-46
2022/07/05 09:19:06;;;;;;;1.97;1.87;;;25.70;44.10;;;;;;5109603;27;20566;-48
2022/07/05 09:21:47;;;;;;;1.40;1.30;;;25.60;44.00;;;;;;5078405;27;20962;-47
2022/07/05 09:24:29;;;;;;;2.43;2.00;;;25.60;44.00;;;;;;5071038;27;20533;-48
2022/07/05 09:27:09;;;;;;;1.80;1.70;;;25.60;44.00;;;;;;5111441;27;20546;-47
2022/07/05 09:29:56;;;;;;;2.10;1.40;;;25.60;44.00;;;;;;5059652;27;20901;-47
2022/07/05 09:32:42;;;;;;;1.87;1.50;;;25.70;44.10;;;;;;5074925;28;20533;-47
2022/07/05 09:35:23;;;;;;;2.60;1.43;;;25.60;45.40;;;;;;5095871;27;20584;-47
2022/07/05 09:38:04;;;;;;;2.17;1.47;;;25.70;44.30;;;;;;5118250;27;20534;-46
2022/07/05 09:40:49;;;;;;;1.53;1.40;;;25.70;44.30;;;;;;5074532;28;20600;-46
2022/07/05 09:43:31;;;;;;;1.53;1.43;;;25.70;44.20;;;;;;5109064;27;20522;-47
2022/07/05 09:46:13;;;;;;;1.43;1.33;;;25.70;44.20;;;;;;5057774;28;21066;-47
2022/07/05 09:48:53;;;;;;;1.83;1.60;;;25.70;44.00;;;;;;5060134;28;20861;-46
2022/07/05 09:51:48;;;;;;;2.40;1.80;;;25.60;43.80;;;;;;5110428;27;20547;-47
2022/07/05 09:54:35;;;;;;;4.47;1.40;;;25.70;43.60;;;;;;5083666;27;20941;-47
2022/07/05 09:57:25;;;;;;;2.57;2.37;;;25.60;43.50;;;;;;5070086;27;20595;-46
2022/07/05 10:00:08;;;;;;;1.83;1.50;;;25.60;43.70;;;;;;5074977;27;20575;-46
2022/07/05 10:02:51;;;;;;;1.70;1.60;;;25.60;43.90;;;;;;5117471;27;20574;-48
2022/07/05 10:05:33;;;;;;;4.87;1.40;;;25.60;43.90;;;;;;5108977;27;20539;-46
2022/07/05 10:08:14;;;;;;;1.40;1.30;;;25.60;43.90;;;;;;5085184;27;20600;-47
2022/07/05 10:10:55;;;;;;;1.70;1.60;;;25.70;44.10;;;;;;5058624;27;20592;-46
2022/07/05 10:13:35;;;;;;;1.90;1.80;;;25.60;43.80;;;;;;5082189;28;20523;-46
2022/07/05 10:16:17;;;;;;;2.87;1.70;;;25.60;43.80;;;;;;5056110;27;20551;-47
2022/07/05 10:18:58;;;;;;;1.67;1.43;;;25.70;43.80;;;;;;5088221;27;20573;-48
2022/07/05 10:21:39;;;;;;;2.10;1.93;;;25.70;44.00;;;;;;5086145;27;20532;-47
2022/07/05 10:24:41;;;;;;;4.60;1.80;;;25.60;43.90;;;;;;5119689;27;20521;-46
2022/07/05 10:27:25;;;;;;;2.00;1.50;;;25.60;43.90;;;;;;5062425;27;20610;-47
2022/07/05 10:30:08;;;;;;;1.63;1.33;;;25.60;43.70;;;;;;5128510;27;20501;-47
2022/07/05 10:32:49;;;;;;;1.77;1.67;;;25.60;43.70;;;;;;5078872;28;20596;-48
2022/07/05 10:35:32;;;;;;;1.47;1.37;;;25.60;43.80;;;;;;5080776;27;20625;-72
2022/07/05 10:38:14;;;;;;;1.67;1.50;;;25.60;43.60;;;;;;5105705;27;20603;-47
2022/07/05 10:41:00;;;;;;;1.30;1.20;;;25.60;43.70;;;;;;5073023;27;20592;-46
2022/07/05 10:43:41;;;;;;;1.93;1.73;;;25.60;43.50;;;;;;5122694;27;21109;-47
2022/07/05 10:46:34;;;;;;;1.97;1.33;;;25.60;43.60;;;;;;5061041;28;21096;-45
2022/07/05 10:49:17;;;;;;;3.40;1.60;;;25.70;43.90;;;;;;5074073;28;20984;-47
2022/07/05 10:51:58;;;;;;;2.63;2.00;;;25.70;42.50;;;;;;5050842;27;20605;-47
2022/07/05 10:55:21;;;;;;;1.90;1.20;;;25.60;42.60;;;;;;5099313;27;20588;-46
2022/07/05 10:58:25;;;;;;;4.93;1.83;;;25.60;42.70;;;;;;5124414;27;20584;-48
2022/07/05 11:01:42;;;;;;;1.80;1.70;;;25.60;43.00;;;;;;5076778;28;20537;-47
2022/07/05 11:04:30;;;;;;;2.80;1.57;;;25.70;43.00;;;;;;5077665;28;20567;-48
2022/07/05 11:07:13;;;;;;;2.83;1.60;;;25.60;42.90;;;;;;5054008;27;20592;-47
2022/07/05 11:10:02;;;;;;;2.17;1.70;;;25.60;43.00;;;;;;5073281;27;20533;-48
2022/07/05 11:12:43;;;;;;;1.30;1.20;;;25.60;43.00;;;;;;5077334;28;20571;-47
2022/07/05 11:15:24;;;;;;;2.20;1.43;;;25.60;42.80;;;;;;5095423;27;20611;-48
2022/07/05 11:18:24;;;;;;;1.63;1.53;;;25.60;42.90;;;;;;5077195;27;20537;-48
2022/07/05 11:21:18;;;;;;;2.30;1.33;;;25.60;41.90;;;;;;5095032;27;20606;-47
2022/07/05 11:24:19;;;;;;;1.90;1.70;;;25.70;42.40;;;;;;5121123;27;20525;-48
2022/07/05 11:27:01;;;;;;;1.17;1.10;;;25.70;42.60;;;;;;5036328;28;20966;-48
2022/07/05 11:29:43;;;;;;;1.50;1.40;;;25.70;42.70;;;;;;5119212;27;20589;-48
2022/07/05 11:32:36;;;;;;;1.60;1.50;;;25.70;42.50;;;;;;5059481;27;20552;-48
2022/07/05 11:35:18;;;;;;;1.53;1.43;;;25.70;42.40;;;;;;5143362;27;21154;-48
2022/07/05 11:38:01;;;;;;;1.40;1.30;;;25.70;42.50;;;;;;5087404;22;20573;-49
2022/07/05 11:41:13;;;;;;;1.90;1.70;;;25.70;42.70;;;;;;5140995;27;20569;-50
2022/07/05 11:43:59;;;;;;;1.60;1.50;;;25.70;42.50;;;;;;5107681;27;20666;-48
2022/07/05 11:46:41;;;;;;;2.10;1.90;;;25.70;42.90;;;;;;5060414;27;21094;-48
2022/07/05 11:49:29;;;;;;;1.70;1.60;;;25.70;42.90;;;;;;5079476;28;21041;-49
2022/07/05 11:52:10;;;;;;;2.20;1.63;;;25.70;42.60;;;;;;5090353;27;20601;-49
2022/07/05 11:54:51;;;;;;;1.67;1.57;;;25.70;42.40;;;;;;5122286;27;20598;-49
2022/07/05 11:57:33;;;;;;;1.70;1.60;;;25.70;42.50;;;;;;5045938;28;20567;-47
2022/07/05 12:00:25;;;;;;;2.07;1.80;;;25.70;42.70;;;;;;5079560;27;21094;-48
2022/07/05 12:03:13;;;;;;;1.37;1.27;;;25.70;42.40;;;;;;5094774;27;20526;-47
2022/07/05 12:05:55;;;;;;;1.30;1.20;;;25.70;42.70;;;;;;5054708;28;20602;-49
2022/07/05 12:08:36;;;;;;;1.50;1.40;;;25.70;42.90;;;;;;5090521;27;20536;-47
2022/07/05 12:14:22;;;;;;;2.20;1.90;;;25.80;42.50;;;;;;5102445;27;20515;-49
2022/07/05 12:17:16;;;;;;;2.30;1.77;;;25.80;42.20;;;;;;5062782;27;20576;-48
2022/07/05 12:20:06;;;;;;;1.87;1.50;;;25.80;42.10;;;;;;5077700;27;20585;-49
2022/07/05 12:22:46;;;;;;;2.40;1.57;;;25.80;42.50;;;;;;5075565;27;20524;-49
2022/07/05 12:25:29;;;;;;;1.90;1.60;;;25.80;42.10;;;;;;5072004;27;20597;-48
2022/07/05 12:28:10;;;;;;;1.90;1.67;;;25.80;42.40;;;;;;5059049;27;20533;-49
2022/07/05 12:30:50;;;;;;;3.83;1.77;;;25.80;41.80;;;;;;5099775;27;20543;-49
2022/07/05 12:33:32;;;;;;;2.10;1.90;;;25.80;41.10;;;;;;5119332;27;20529;-48
2022/07/05 12:36:14;;;;;;;1.97;1.80;;;25.80;41.40;;;;;;5084394;27;20533;-48
2022/07/05 12:39:00;;;;;;;2.67;1.53;;;25.80;41.80;;;;;;5102456;27;20552;-47
2022/07/05 12:41:44;;;;;;;1.97;1.57;;;25.80;41.90;;;;;;5061070;28;20549;-48
2022/07/05 12:44:25;;;;;;;1.50;1.40;;;25.80;41.80;;;;;;5122140;27;20572;-48
2022/07/05 12:47:07;;;;;;;1.90;1.70;;;25.80;41.30;;;;;;5041532;27;20697;-47
2022/07/05 12:49:57;;;;;;;2.25;1.90;;;25.80;40.60;;;;;;5059964;27;20592;-48
2022/07/05 12:52:57;;;;;;;4.20;1.87;;;25.70;40.00;;;;;;5116371;27;20590;-47
2022/07/05 12:58:46;;;;;;;1.60;1.50;;;25.70;40.20;;;;;;5079539;27;20524;-47
2022/07/05 13:01:28;;;;;;;4.50;1.83;;;25.70;40.20;;;;;;5057306;28;20554;-48
2022/07/05 13:04:11;;;;;;;2.30;1.70;;;25.70;39.90;;;;;;5083253;27;20520;-48
2022/07/05 13:06:54;;;;;;;2.70;1.40;;;25.80;40.70;;;;;;5046085;27;20698;-48
2022/07/05 13:09:37;;;;;;;1.30;1.20;;;25.80;40.80;;;;;;5084624;27;20593;-48
2022/07/05 13:12:20;;;;;;;2.33;1.40;;;25.80;40.90;;;;;;5068144;27;20537;-47
2022/07/05 13:15:02;;;;;;;1.57;1.33;;;25.80;41.10;;;;;;5085889;27;20549;-49
2022/07/05 13:17:44;;;;;;;1.40;1.30;;;25.90;41.30;;;;;;5077606;28;20939;-48
2022/07/05 13:20:25;;;;;;;1.60;1.50;;;25.90;41.60;;;;;;5077026;28;20558;-48
2022/07/05 13:23:06;;;;;;;3.20;1.70;;;25.90;41.60;;;;;;5083325;27;20562;-50
2022/07/05 13:25:47;;;;;;;2.00;1.90;;;25.90;41.50;;;;;;5063021;28;20543;-48
2022/07/05 13:28:29;;;;;;;1.90;1.40;;;25.90;41.40;;;;;;5128628;27;20513;-48
2022/07/05 13:31:11;;;;;;;1.50;1.40;;;25.90;41.60;;;;;;5090216;27;20588;-47
2022/07/05 13:33:51;;;;;;;1.70;1.50;;;25.90;41.50;;;;;;5102999;27;20546;-49
2022/07/05 13:36:33;;;;;;;2.20;1.43;;;26.00;41.80;;;;;;5050584;28;20687;-49
2022/07/05 13:39:14;;;;;;;1.63;1.53;;;26.00;41.90;;;;;;5079294;27;20543;-49
2022/07/05 13:41:58;;;;;;;2.20;1.90;;;26.00;41.20;;;;;;5074942;27;20553;-49
2022/07/05 13:44:39;;;;;;;1.57;1.47;;;26.00;40.80;;;;;;5062277;28;20523;-47
2022/07/05 13:47:20;;;;;;;3.03;1.90;;;26.00;40.40;;;;;;5060785;27;20593;-47
2022/07/05 13:52:59;;;;;;;1.33;1.20;;;26.00;40.10;;;;;;5108056;27;20931;-49
2022/07/05 13:55:40;;;;;;;1.50;1.40;;;26.00;40.10;;;;;;5078712;28;20600;-49
2022/07/05 13:58:22;;;;;;;1.57;1.27;;;26.00;40.10;;;;;;5079911;28;20525;-48
2022/07/05 14:01:04;;;;;;;1.80;1.70;;;26.00;40.10;;;;;;5097424;27;20587;-48
2022/07/05 14:03:44;;;;;;;1.60;1.50;;;26.00;40.50;;;;;;5085452;27;20577;-47
2022/07/05 14:06:26;;;;;;;1.30;1.20;;;26.00;40.60;;;;;;5056635;28;20566;-49
2022/07/05 14:09:08;;;;;;;1.63;1.53;;;26.00;40.80;;;;;;5071525;28;21228;-48
2022/07/05 14:11:48;;;;;;;1.73;1.30;;;26.00;40.50;;;;;;5095293;27;1222387;-47
2022/07/05 14:14:29;;;;;;;1.70;1.60;;;26.00;40.10;;;;;;5084390;27;20940;-47
2022/07/05 14:17:10;;;;;;;1.57;1.30;;;26.00;40.70;;;;;;5073055;28;20975;-48